createdAt,value
2019-05-30T00:00:05.679Z,76.90
2019-05-30T00:02:20.170Z,76.80
2019-05-30T00:04:46.928Z,77.20
2019-05-30T00:07:13.639Z,76.30
2019-05-30T00:09:41.499Z,76.30
2019-05-30T00:12:08.240Z,76.50
2019-05-30T00:14:34.970Z,76.20
2019-05-30T00:17:02.923Z,75.60
2019-05-30T00:19:33.667Z,77.20
2019-05-30T00:21:58.653Z,76.70
2019-05-30T00:24:25.601Z,76.60
2019-05-30T00:26:52.354Z,76.60
2019-05-30T00:29:19.080Z,76.70
2019-05-30T00:31:45.983Z,76.80
2019-05-30T00:34:12.704Z,77.40
2019-05-30T00:36:39.440Z,76.70
2019-05-30T00:39:06.819Z,75.90
2019-05-30T00:41:33.664Z,75.90
2019-05-30T00:44:00.396Z,76.50
2019-05-30T00:46:27.299Z,75.80
2019-05-30T00:48:54.035Z,76.10
2019-05-30T00:51:20.751Z,76.80
2019-05-30T00:53:47.669Z,76.90
2019-05-30T00:56:14.377Z,77.10
2019-05-30T00:58:41.103Z,77.40
2019-05-30T01:01:07.969Z,77.50
2019-05-30T01:03:34.716Z,77.40
2019-05-30T01:06:01.420Z,77.40
2019-05-30T01:08:28.269Z,77.80
2019-05-30T01:10:55.055Z,77.80
2019-05-30T01:13:21.778Z,77.50
2019-05-30T01:15:49.273Z,77.60
2019-05-30T01:18:15.979Z,77.00
2019-05-30T01:20:43.840Z,77.50
2019-05-30T01:23:10.719Z,77.20
2019-05-30T01:25:37.468Z,76.90
2019-05-30T01:28:05.552Z,77.50
2019-05-30T01:30:32.781Z,77.40
2019-05-30T01:32:59.692Z,77.60
2019-05-30T01:35:26.515Z,77.60
2019-05-30T01:37:53.299Z,77.10
2019-05-30T01:40:20.050Z,77.30
2019-05-30T01:42:46.777Z,77.50
2019-05-30T01:45:15.582Z,77.40
2019-05-30T01:47:42.272Z,77.20
2019-05-30T01:50:09.897Z,77.70
2019-05-30T01:52:36.992Z,78.10
2019-05-30T01:55:08.855Z,78.30
2019-05-30T01:57:36.371Z,78.20
2019-05-30T02:00:20.873Z,77.90
2019-05-30T02:02:42.491Z,77.50
2019-05-30T02:05:09.944Z,77.60
2019-05-30T02:07:36.718Z,77.80
2019-05-30T02:10:10.074Z,77.90
2019-05-30T02:12:36.928Z,77.40
2019-05-30T02:15:07.649Z,77.60
2019-05-30T02:17:34.714Z,77.30
2019-05-30T02:20:01.901Z,77.80
2019-05-30T02:22:28.808Z,77.20
2019-05-30T02:24:55.539Z,77.40
2019-05-30T02:27:22.249Z,78.10
2019-05-30T02:29:49.163Z,77.60
2019-05-30T02:32:15.908Z,77.20
2019-05-30T02:34:42.637Z,77.20
2019-05-30T02:37:10.757Z,78.10
2019-05-30T02:39:38.050Z,77.90
2019-05-30T02:42:05.250Z,77.10
2019-05-30T02:44:32.522Z,77.30
2019-05-30T02:47:01.272Z,77.80
2019-05-30T02:49:27.761Z,77.60
2019-05-30T02:51:54.776Z,77.10
2019-05-30T02:54:21.568Z,77.10
2019-05-30T02:56:48.309Z,77.10
2019-05-30T02:59:15.204Z,77.40
2019-05-30T03:01:59.029Z,77.60
2019-05-30T03:04:12.731Z,77.90
2019-05-30T03:06:39.570Z,78.10
2019-05-30T03:09:08.374Z,77.70
2019-05-30T03:11:35.498Z,78.00
2019-05-30T03:14:04.474Z,77.90
2019-05-30T03:16:31.604Z,77.80
2019-05-30T03:18:58.671Z,77.70
2019-05-30T03:21:25.592Z,77.20
2019-05-30T03:23:52.431Z,76.90
2019-05-30T03:26:19.301Z,76.90
2019-05-30T03:28:46.235Z,77.60
2019-05-30T03:31:26.651Z,77.50
2019-05-30T03:33:44.879Z,77.80
2019-05-30T03:36:24.129Z,77.50
2019-05-30T03:38:40.490Z,77.50
2019-05-30T03:41:09.086Z,77.50
2019-05-30T03:43:36.916Z,77.30
2019-05-30T03:46:10.578Z,77.40
2019-05-30T03:48:41.789Z,77.00
2019-05-30T03:51:14.911Z,77.20
2019-05-30T03:53:41.975Z,77.10
2019-05-30T03:56:20.275Z,77.00
2019-05-30T03:59:08.081Z,77.00
2019-05-30T04:01:41.013Z,77.90
2019-05-30T04:04:25.471Z,77.00
2019-05-30T04:07:00.341Z,77.10
2019-05-30T04:09:30.202Z,77.40
2019-05-30T04:12:29.867Z,77.40
2019-05-30T04:15:09.930Z,77.00
2019-05-30T04:17:36.751Z,77.60
2019-05-30T04:20:07.133Z,77.70
2019-05-30T04:22:34.034Z,77.10
2019-05-30T04:25:00.976Z,77.10
2019-05-30T04:27:27.720Z,77.00
2019-05-30T04:29:54.493Z,77.00
2019-05-30T04:32:21.306Z,77.00
2019-05-30T04:34:48.050Z,77.30
2019-05-30T04:37:14.976Z,76.90
2019-05-30T04:39:42.438Z,77.10
2019-05-30T04:42:09.406Z,77.80
2019-05-30T04:44:37.774Z,77.10
2019-05-30T04:47:04.669Z,77.10
2019-05-30T04:49:31.440Z,77.80
2019-05-30T04:51:58.199Z,77.20
2019-05-30T04:54:25.097Z,77.20
2019-05-30T04:56:51.882Z,77.20
2019-05-30T04:59:19.830Z,77.30
2019-05-30T05:01:52.854Z,77.40
2019-05-30T05:04:19.656Z,77.50
2019-05-30T05:06:46.386Z,77.30
2019-05-30T05:09:17.993Z,77.80
2019-05-30T05:11:44.996Z,78.40
2019-05-30T05:14:12.327Z,78.10
2019-05-30T05:16:39.410Z,77.90
2019-05-30T05:19:06.173Z,77.70
2019-05-30T05:21:34.793Z,77.40
2019-05-30T05:24:02.156Z,77.40
2019-05-30T05:26:31.447Z,77.00
2019-05-30T05:29:01.566Z,77.20
2019-05-30T05:31:30.414Z,77.00
2019-05-30T05:33:57.522Z,76.80
2019-05-30T05:36:25.225Z,77.00
2019-05-30T05:38:52.223Z,76.90
2019-05-30T05:41:20.164Z,76.80
2019-05-30T05:43:46.931Z,76.40
2019-05-30T05:46:13.812Z,76.10
2019-05-30T05:48:40.558Z,76.00
2019-05-30T05:51:07.296Z,75.70
2019-05-30T05:53:34.177Z,75.60
2019-05-30T05:56:00.927Z,73.50
2019-05-30T05:58:47.543Z,71.90
2019-05-30T06:01:14.263Z,71.30
2019-05-30T06:03:40.994Z,70.60
2019-05-30T06:06:07.853Z,69.70
2019-05-30T06:08:34.601Z,67.20
2019-05-30T06:11:01.352Z,66.90
2019-05-30T06:13:29.060Z,66.90
2019-05-30T06:15:57.799Z,65.10
2019-05-30T06:18:24.544Z,66.00
2019-05-30T06:20:51.443Z,64.40
2019-05-30T06:23:19.418Z,63.60
2019-05-30T06:25:46.208Z,63.30
2019-05-30T06:28:13.082Z,62.60
2019-05-30T06:30:39.820Z,62.70
2019-05-30T06:33:06.579Z,62.20
2019-05-30T06:35:33.469Z,63.10
2019-05-30T06:38:00.179Z,61.80
2019-05-30T06:40:30.368Z,61.20
2019-05-30T06:42:55.673Z,59.80
2019-05-30T06:45:25.611Z,60.00
2019-05-30T06:47:52.737Z,59.50
2019-05-30T06:50:20.602Z,59.90
2019-05-30T06:52:47.475Z,60.90
2019-05-30T06:55:14.318Z,59.90
2019-05-30T06:57:41.086Z,59.70
2019-05-30T07:00:08.229Z,59.50
2019-05-30T07:02:34.972Z,59.60
2019-05-30T07:05:03.024Z,61.60
2019-05-30T07:07:31.237Z,62.50
2019-05-30T07:09:58.149Z,62.90
2019-05-30T07:12:27.142Z,61.60
2019-05-30T07:14:53.614Z,61.40
2019-05-30T07:17:20.395Z,61.30
2019-05-30T07:19:47.317Z,59.50
2019-05-30T07:22:14.041Z,58.80
2019-05-30T07:24:40.799Z,58.20
2019-05-30T07:27:07.697Z,59.20
2019-05-30T07:29:34.451Z,57.80
2019-05-30T07:32:01.208Z,58.70
2019-05-30T07:34:28.203Z,58.50
2019-05-30T07:36:54.910Z,58.70
2019-05-30T07:39:21.660Z,57.80
2019-05-30T07:42:04.969Z,56.70
2019-05-30T07:44:17.121Z,57.20
2019-05-30T07:46:43.861Z,55.50
2019-05-30T07:49:10.752Z,55.90
2019-05-30T07:51:38.846Z,54.80
2019-05-30T07:54:05.765Z,53.90
2019-05-30T07:56:33.466Z,55.00
2019-05-30T07:59:00.279Z,55.10
2019-05-30T08:01:28.278Z,57.40
2019-05-30T08:03:55.213Z,55.70
2019-05-30T08:06:21.934Z,55.20
2019-05-30T08:08:48.669Z,54.60
2019-05-30T08:11:15.546Z,53.50
2019-05-30T08:13:42.270Z,54.40
2019-05-30T08:16:09.022Z,54.90
2019-05-30T08:18:35.970Z,54.00
2019-05-30T08:21:02.681Z,50.70
2019-05-30T08:23:30.094Z,52.50
2019-05-30T08:25:57.115Z,53.30
2019-05-30T08:28:23.834Z,52.80
2019-05-30T08:30:50.669Z,51.60
2019-05-30T08:33:17.557Z,51.80
2019-05-30T08:35:49.790Z,52.50
2019-05-30T08:38:12.817Z,53.10
2019-05-30T08:40:39.717Z,51.90
2019-05-30T08:43:06.473Z,51.40
2019-05-30T08:45:33.630Z,51.60
2019-05-30T08:48:00.660Z,51.20
2019-05-30T08:50:27.371Z,49.80
2019-05-30T08:52:54.116Z,47.80
2019-05-30T08:55:20.906Z,49.90
2019-05-30T08:57:50.152Z,52.00
2019-05-30T09:00:17.866Z,49.80
2019-05-30T09:02:45.151Z,50.50
2019-05-30T09:05:12.328Z,49.90
2019-05-30T09:07:40.187Z,48.00
2019-05-30T09:10:08.943Z,49.00
2019-05-30T09:12:36.429Z,49.70
2019-05-30T09:15:09.139Z,50.60
2019-05-30T09:17:35.955Z,49.00
2019-05-30T09:20:05.741Z,47.00
2019-05-30T09:22:32.461Z,48.00
2019-05-30T09:24:59.329Z,48.70
2019-05-30T09:27:26.071Z,47.10
2019-05-30T09:29:52.846Z,47.50
2019-05-30T09:32:19.814Z,47.30
2019-05-30T09:34:47.067Z,48.60
2019-05-30T09:37:13.817Z,48.10
2019-05-30T09:39:41.533Z,49.80
2019-05-30T09:42:08.422Z,50.60
2019-05-30T09:44:35.171Z,49.10
2019-05-30T09:47:02.050Z,49.50
2019-05-30T09:49:28.797Z,47.10
2019-05-30T09:51:55.522Z,47.20
2019-05-30T09:54:22.407Z,48.00
2019-05-30T09:56:49.117Z,48.20
2019-05-30T09:59:15.838Z,49.20
2019-05-30T10:01:44.214Z,48.40
2019-05-30T10:04:11.054Z,45.10
2019-05-30T10:06:37.767Z,47.60
2019-05-30T10:09:08.063Z,47.60
2019-05-30T10:11:34.791Z,46.90
2019-05-30T10:14:01.512Z,47.50
2019-05-30T10:16:28.472Z,45.60
2019-05-30T10:18:55.219Z,45.70
2019-05-30T10:21:22.012Z,46.10
2019-05-30T10:23:49.389Z,45.20
2019-05-30T10:26:16.338Z,44.70
2019-05-30T10:28:43.064Z,46.20
2019-05-30T10:31:09.989Z,45.60
2019-05-30T10:33:36.709Z,45.60
2019-05-30T10:36:03.701Z,46.10
2019-05-30T10:38:30.523Z,46.60
2019-05-30T10:40:57.271Z,46.70
2019-05-30T10:43:24.056Z,44.00
2019-05-30T10:45:51.232Z,45.60
2019-05-30T10:48:20.859Z,44.80
2019-05-30T10:50:48.575Z,43.80
2019-05-30T10:53:15.532Z,43.50
2019-05-30T10:55:42.260Z,44.90
2019-05-30T10:58:09.081Z,45.50
2019-05-30T11:00:53.869Z,45.70
2019-05-30T11:03:24.266Z,43.80
2019-05-30T11:06:17.860Z,42.60
2019-05-30T11:08:47.915Z,45.20
2019-05-30T11:11:15.715Z,41.00
2019-05-30T11:13:42.579Z,42.10
2019-05-30T11:16:09.315Z,42.20
2019-05-30T11:18:36.134Z,43.80
2019-05-30T11:21:03.306Z,44.70
2019-05-30T11:23:30.044Z,46.30
2019-05-30T11:25:56.796Z,43.10
2019-05-30T11:28:23.640Z,44.00
2019-05-30T11:30:50.666Z,42.50
2019-05-30T11:33:17.522Z,41.00
2019-05-30T11:35:44.481Z,43.20
2019-05-30T11:38:11.118Z,43.00
2019-05-30T11:40:38.966Z,43.80
2019-05-30T11:43:05.785Z,43.70
2019-05-30T11:45:42.867Z,43.50
2019-05-30T11:48:12.787Z,42.90
2019-05-30T11:50:39.500Z,41.80
2019-05-30T11:53:06.224Z,43.40
2019-05-30T11:55:33.124Z,44.50
2019-05-30T11:58:00.408Z,43.80
2019-05-30T12:00:27.811Z,44.20
2019-05-30T12:02:54.696Z,43.80
2019-05-30T12:05:21.953Z,44.20
2019-05-30T12:07:48.689Z,44.40
2019-05-30T12:10:17.500Z,42.20
2019-05-30T12:12:44.246Z,41.10
2019-05-30T12:15:11.687Z,42.00
2019-05-30T12:17:38.577Z,43.90
2019-05-30T12:20:06.347Z,42.60
2019-05-30T12:22:33.115Z,42.60
2019-05-30T12:25:00.429Z,43.80
2019-05-30T12:27:27.453Z,44.50
2019-05-30T12:29:56.217Z,44.10
2019-05-30T12:32:23.199Z,44.60
2019-05-30T12:34:49.943Z,44.40
2019-05-30T12:37:16.659Z,43.80
2019-05-30T12:39:43.529Z,44.40
2019-05-30T12:42:10.254Z,44.20
2019-05-30T12:44:37.020Z,44.50
2019-05-30T12:47:04.037Z,44.40
2019-05-30T12:49:30.752Z,44.60
2019-05-30T12:51:58.367Z,45.20
2019-05-30T12:54:25.338Z,45.70
2019-05-30T12:56:52.066Z,45.90
2019-05-30T12:59:18.775Z,45.20
2019-05-30T13:01:45.629Z,43.00
2019-05-30T13:04:12.576Z,45.40
2019-05-30T13:06:39.313Z,43.20
2019-05-30T13:09:08.406Z,44.50
2019-05-30T13:11:36.535Z,44.70
2019-05-30T13:14:04.672Z,44.60
2019-05-30T13:16:31.650Z,45.10
2019-05-30T13:18:58.389Z,44.10
2019-05-30T13:21:28.273Z,42.70
2019-05-30T13:23:55.536Z,43.40
2019-05-30T13:26:22.357Z,45.10
2019-05-30T13:28:49.096Z,44.30
2019-05-30T13:31:15.968Z,42.70
2019-05-30T13:33:42.693Z,42.20
2019-05-30T13:36:09.409Z,43.90
2019-05-30T13:38:36.264Z,43.30
2019-05-30T13:41:03.594Z,43.90
2019-05-30T13:43:30.421Z,44.40
2019-05-30T13:45:58.123Z,46.00
2019-05-30T13:48:24.902Z,45.20
2019-05-30T13:50:51.621Z,45.10
2019-05-30T13:53:18.495Z,45.00
2019-05-30T13:55:45.219Z,45.00
2019-05-30T13:58:11.943Z,45.10
2019-05-30T14:00:39.274Z,46.60
2019-05-30T14:03:06.280Z,46.60
2019-05-30T14:05:33.116Z,46.80
2019-05-30T14:08:00.261Z,46.00
2019-05-30T14:10:26.985Z,44.50
2019-05-30T14:12:53.730Z,44.20
2019-05-30T14:15:20.922Z,46.10
2019-05-30T14:17:47.640Z,47.30
2019-05-30T14:20:16.070Z,47.40
2019-05-30T14:22:42.944Z,47.60
2019-05-30T14:25:11.936Z,47.00
2019-05-30T14:27:38.732Z,45.40
2019-05-30T14:30:08.967Z,46.70
2019-05-30T14:32:35.972Z,47.30
2019-05-30T14:35:08.470Z,46.90
2019-05-30T14:37:35.495Z,46.70
2019-05-30T14:40:08.813Z,44.10
2019-05-30T14:42:35.585Z,42.00
2019-05-30T14:45:08.393Z,43.80
2019-05-30T14:47:35.363Z,46.60
2019-05-30T14:50:08.764Z,45.60
2019-05-30T14:52:36.058Z,46.10
2019-05-30T14:55:06.738Z,44.70
2019-05-30T14:57:33.390Z,43.60
2019-05-30T15:00:00.302Z,41.70
2019-05-30T15:02:27.007Z,40.00
2019-05-30T15:04:53.757Z,40.20
2019-05-30T15:07:20.653Z,40.00
2019-05-30T15:09:47.413Z,40.30
2019-05-30T15:12:14.131Z,40.30
2019-05-30T15:14:41.042Z,38.60
2019-05-30T15:17:07.973Z,37.70
2019-05-30T15:19:34.835Z,38.30
2019-05-30T15:22:01.710Z,38.70
2019-05-30T15:24:28.507Z,40.40
2019-05-30T15:26:55.239Z,38.50
2019-05-30T15:29:22.117Z,39.10
2019-05-30T15:31:48.832Z,38.20
2019-05-30T15:34:16.736Z,38.10
2019-05-30T15:36:43.731Z,38.30
2019-05-30T15:39:10.893Z,39.30
2019-05-30T15:41:37.684Z,40.70
2019-05-30T15:44:04.578Z,40.10
2019-05-30T15:46:31.328Z,41.30
2019-05-30T15:48:58.480Z,40.90
2019-05-30T15:51:25.372Z,42.80
2019-05-30T15:53:52.170Z,43.10
2019-05-30T15:56:19.446Z,43.60
2019-05-30T15:58:46.591Z,42.40
2019-05-30T16:01:13.916Z,43.00
2019-05-30T16:03:40.843Z,43.70
2019-05-30T16:06:07.662Z,44.50
2019-05-30T16:08:34.373Z,44.60
2019-05-30T16:11:01.122Z,44.30
2019-05-30T16:13:28.022Z,45.00
2019-05-30T16:15:54.817Z,44.30
2019-05-30T16:18:22.057Z,44.30
2019-05-30T16:20:49.152Z,43.90
2019-05-30T16:23:16.570Z,45.30
2019-05-30T16:25:43.499Z,45.70
2019-05-30T16:28:10.546Z,44.20
2019-05-30T16:30:38.692Z,45.10
2019-05-30T16:33:05.514Z,45.70
2019-05-30T16:35:32.614Z,44.00
2019-05-30T16:37:59.374Z,44.00
2019-05-30T16:40:26.693Z,44.30
2019-05-30T16:42:53.758Z,45.40
2019-05-30T16:45:24.688Z,44.40
2019-05-30T16:47:49.447Z,45.70
2019-05-30T16:50:20.663Z,45.60
2019-05-30T16:52:47.420Z,45.30
2019-05-30T16:55:15.178Z,45.30
2019-05-30T16:57:42.335Z,44.70
2019-05-30T17:00:12.250Z,45.00
2019-05-30T17:02:38.968Z,45.00
2019-05-30T17:05:08.502Z,46.10
2019-05-30T17:07:35.591Z,44.80
2019-05-30T17:10:21.541Z,45.10
2019-05-30T17:12:35.564Z,45.30
2019-05-30T17:15:08.538Z,47.10
2019-05-30T17:17:35.257Z,47.10
2019-05-30T17:20:05.555Z,48.20
2019-05-30T17:22:32.303Z,47.80
2019-05-30T17:24:59.034Z,47.50
2019-05-30T17:27:26.145Z,46.20
2019-05-30T17:29:53.175Z,46.90
2019-05-30T17:32:19.895Z,45.20
2019-05-30T17:34:46.782Z,43.80
2019-05-30T17:37:13.897Z,47.20
2019-05-30T17:39:40.652Z,48.10
2019-05-30T17:42:07.449Z,48.10
2019-05-30T17:44:36.467Z,47.40
2019-05-30T17:47:03.350Z,47.40
2019-05-30T17:49:30.507Z,47.80
2019-05-30T17:51:57.614Z,48.50
2019-05-30T17:54:25.899Z,48.50
2019-05-30T17:56:52.982Z,49.30
2019-05-30T17:59:20.166Z,50.00
2019-05-30T18:01:46.995Z,51.50
2019-05-30T18:04:13.938Z,51.40
2019-05-30T18:06:40.662Z,51.50
2019-05-30T18:09:07.374Z,50.70
2019-05-30T18:11:34.264Z,50.20
2019-05-30T18:14:03.185Z,48.10
2019-05-30T18:16:29.898Z,48.80
2019-05-30T18:18:56.836Z,49.30
2019-05-30T18:21:23.639Z,50.20
2019-05-30T18:23:50.325Z,50.70
2019-05-30T18:26:17.212Z,51.60
2019-05-30T18:28:44.972Z,52.00
2019-05-30T18:31:11.923Z,51.30
2019-05-30T18:33:38.867Z,51.10
2019-05-30T18:36:05.613Z,52.00
2019-05-30T18:38:32.626Z,52.30
2019-05-30T18:41:10.740Z,52.70
2019-05-30T18:43:28.824Z,51.50
2019-05-30T18:45:55.569Z,51.70
2019-05-30T18:48:23.276Z,51.60
2019-05-30T18:50:50.190Z,52.10
2019-05-30T18:53:16.945Z,52.10
2019-05-30T18:55:44.148Z,54.70
2019-05-30T18:58:11.701Z,55.20
2019-05-30T19:00:38.571Z,55.00
2019-05-30T19:03:05.366Z,56.60
2019-05-30T19:05:32.682Z,56.70
2019-05-30T19:07:59.428Z,56.70
2019-05-30T19:10:27.817Z,56.50
2019-05-30T19:12:54.615Z,57.00
2019-05-30T19:15:21.350Z,57.00
2019-05-30T19:17:48.231Z,56.90
2019-05-30T19:20:17.149Z,57.00
2019-05-30T19:22:43.874Z,56.20
2019-05-30T19:25:11.079Z,56.80
2019-05-30T19:27:38.965Z,57.10
2019-05-30T19:30:09.233Z,56.10
2019-05-30T19:32:36.953Z,57.30
2019-05-30T19:35:09.477Z,58.20
2019-05-30T19:37:37.432Z,58.50
2019-05-30T19:40:05.488Z,59.10
2019-05-30T19:42:33.439Z,59.20
2019-05-30T19:45:00.265Z,59.20
2019-05-30T19:47:28.555Z,59.40
2019-05-30T19:49:55.421Z,59.70
2019-05-30T19:52:22.157Z,61.20
2019-05-30T19:54:49.071Z,61.30
2019-05-30T19:57:15.810Z,62.30
2019-05-30T19:59:42.533Z,62.00
2019-05-30T20:02:09.437Z,62.20
2019-05-30T20:04:36.409Z,61.80
2019-05-30T20:07:03.321Z,61.60
2019-05-30T20:09:30.466Z,62.60
2019-05-30T20:12:03.349Z,62.70
2019-05-30T20:14:26.250Z,63.60
2019-05-30T20:16:53.108Z,64.00
2019-05-30T20:19:19.815Z,63.60
2019-05-30T20:21:46.551Z,64.20
2019-05-30T20:24:13.415Z,64.40
2019-05-30T20:26:40.662Z,63.80
2019-05-30T20:29:07.470Z,64.40
2019-05-30T20:31:35.523Z,64.00
2019-05-30T20:34:02.423Z,64.10
2019-05-30T20:36:29.176Z,64.80
2019-05-30T20:38:56.032Z,64.90
2019-05-30T20:41:22.772Z,65.00
2019-05-30T20:43:49.496Z,63.90
2019-05-30T20:46:23.132Z,63.90
2019-05-30T20:48:45.105Z,63.80
2019-05-30T20:51:20.703Z,63.40
2019-05-30T20:53:41.249Z,63.50
2019-05-30T20:56:08.067Z,63.00
2019-05-30T20:58:35.498Z,64.40
2019-05-30T21:01:02.517Z,64.50
2019-05-30T21:03:29.272Z,64.80
2019-05-30T21:06:16.516Z,64.20
2019-05-30T21:08:44.951Z,64.00
2019-05-30T21:11:11.775Z,64.10
2019-05-30T21:13:40.192Z,64.60
2019-05-30T21:16:09.054Z,65.50
2019-05-30T21:18:35.774Z,64.90
2019-05-30T21:21:02.737Z,65.30
2019-05-30T21:23:29.499Z,65.10
2019-05-30T21:25:56.223Z,65.60
2019-05-30T21:28:23.113Z,65.70
2019-05-30T21:30:49.926Z,65.30
2019-05-30T21:33:16.656Z,65.70
2019-05-30T21:35:43.852Z,66.00
2019-05-30T21:38:10.658Z,65.90
2019-05-30T21:40:38.162Z,65.40
2019-05-30T21:43:07.216Z,65.40
2019-05-30T21:45:33.773Z,65.70
2019-05-30T21:48:00.489Z,66.20
2019-05-30T21:50:27.377Z,65.70
2019-05-30T21:52:54.099Z,64.70
2019-05-30T21:55:20.836Z,65.60
2019-05-30T21:57:48.189Z,65.60
2019-05-30T22:00:38.047Z,65.40
2019-05-30T22:03:04.925Z,65.90
2019-05-30T22:05:31.642Z,64.60
2019-05-30T22:07:58.371Z,64.70
2019-05-30T22:10:25.171Z,65.40
2019-05-30T22:12:51.933Z,66.00
2019-05-30T22:15:18.586Z,66.40
2019-05-30T22:17:45.763Z,65.90
2019-05-30T22:20:12.929Z,66.80
2019-05-30T22:22:39.664Z,65.80
2019-05-30T22:25:06.544Z,66.50
2019-05-30T22:27:34.571Z,66.70
2019-05-30T22:30:01.277Z,66.90
2019-05-30T22:32:28.162Z,66.40
2019-05-30T22:34:54.863Z,66.40
2019-05-30T22:37:21.581Z,66.50
2019-05-30T22:39:48.938Z,66.40
2019-05-30T22:42:15.790Z,66.30
2019-05-30T22:44:42.529Z,66.50
2019-05-30T22:47:09.395Z,67.10
2019-05-30T22:49:36.138Z,66.90
2019-05-30T22:52:03.075Z,66.70
2019-05-30T22:54:29.955Z,66.00
2019-05-30T22:56:56.679Z,65.70
2019-05-30T22:59:23.440Z,66.70
2019-05-30T23:01:51.940Z,67.00
2019-05-30T23:04:18.982Z,66.90
2019-05-30T23:06:46.256Z,67.00
2019-05-30T23:09:13.204Z,66.70
2019-05-30T23:11:39.918Z,66.90
2019-05-30T23:14:06.658Z,66.40
2019-05-30T23:16:33.549Z,66.90
2019-05-30T23:19:00.270Z,66.80
2019-05-30T23:21:27.018Z,66.40
2019-05-30T23:23:53.823Z,66.70
2019-05-30T23:26:20.569Z,66.80
2019-05-30T23:28:47.510Z,66.00
2019-05-30T23:31:14.591Z,66.50
2019-05-30T23:33:41.366Z,67.10
2019-05-30T23:36:08.102Z,67.70
2019-05-30T23:38:34.997Z,67.70
2019-05-30T23:41:01.721Z,68.20
2019-05-30T23:43:28.453Z,68.10
2019-05-30T23:45:55.749Z,67.90
2019-05-30T23:48:22.660Z,67.40
2019-05-30T23:50:49.743Z,68.00
2019-05-30T23:53:16.689Z,68.10
2019-05-30T23:55:43.404Z,68.10
2019-05-30T23:58:10.136Z,67.80
